Flight Track Log - Related Links

Times and Time Zones

All times are in EDT time to prevent confusion due to time zone crossing. See the LOG6844 flight status page for this flight to view local times or setup timezone preferences in your user account.

Time Position Orientation Groundspeed Altitude Reporting Facility
EDT Latitude Longitude Course Direction KTS MPH feet Rate Location/Type
Tue 05:01:09 AM 55.4255 -5.6146 86° East 148 170 2,300  Level FlightAware UK
Tue 05:01:27 AM 55.4262 -5.5977 86° East 148 170 3,000 2,000 Climbing FlightAware UK
Tue 05:01:45 AM 55.4355 -5.5855 37° Northeast 150 173 3,500 2,000 Climbing FlightAware UK
Tue 05:02:03 AM 55.4462 -5.5713 37° Northeast 152 175 4,200 2,167 Climbing FlightAware UK
Tue 05:02:21 AM 55.4556 -5.5579 39° Northeast 154 177 4,800 2,000 Climbing FlightAware UK
Tue 05:02:39 AM 55.4650 -5.5438 41° Northeast 156 180 5,400 2,167 Climbing FlightAware UK
Tue 05:02:57 AM 55.4753 -5.5313 35° Northeast 156 180 6,100 1,500 Climbing FlightAware UK
Tue 05:03:15 AM 55.4849 -5.5160 42° Northeast 180 207 6,300 1,000 Climbing FlightAware UK
Tue 05:03:33 AM 55.4962 -5.4987 41° Northeast 192 221 6,700 1,667 Climbing FlightAware UK
Tue 05:03:51 AM 55.5074 -5.4823 40° Northeast 188 216 7,300 1,667 Climbing FlightAware UK
Tue 05:04:09 AM 55.5185 -5.4655 40° Northeast 192 221 7,700 1,667 Climbing FlightAware UK
Tue 05:04:27 AM 55.5301 -5.4487 39° Northeast 194 223 8,300 1,833 Climbing FlightAware UK
Tue 05:04:45 AM 55.5415 -5.4324 39° Northeast 192 221 8,800 1,167 Climbing FlightAware UK
Tue 05:05:03 AM 55.5529 -5.4151 41° Northeast 206 237 9,000 250 Climbing FlightAware UK
Tue 05:05:33 AM 55.5757 -5.3810 40° Northeast 234 269 9,000  Level FlightAware UK
Tue 05:05:57 AM 55.5954 -5.3516 40° Northeast 252 290 9,000  Level FlightAware UK
Tue 05:06:21 AM 55.6160 -5.3210 40° Northeast 262 302 9,000  Level FlightAware UK
Tue 05:06:51 AM 55.6426 -5.2815 40° Northeast 268 308 9,000 -375 Level FlightAware UK
Tue 05:07:09 AM 55.6588 -5.2575 40° Northeast 268 308 8,700 -833 Descending FlightAware UK
Tue 05:07:27 AM 55.6747 -5.2338 40° Northeast 254 292 8,500 -833 Descending FlightAware UK
Tue 05:07:45 AM 55.6897 -5.2111 40° Northeast 252 290 8,200 -833 Descending FlightAware UK
Tue 05:08:03 AM 55.7046 -5.1886 40° Northeast 250 288 8,000 -833 Descending FlightAware UK
Tue 05:08:21 AM 55.7092 -5.1562 76° East 246 283 7,700 -833 Descending FlightAware UK
Tue 05:08:39 AM 55.7096 -5.1226 89° East 244 281 7,500 -667 Descending FlightAware UK
Tue 05:08:57 AM 55.7090 -5.0900 92° East 242 278 7,300 -833 Descending FlightAware UK
Tue 05:09:15 AM 55.7084 -5.0572 92° East 240 276 7,000 -1,000 Descending FlightAware UK
Tue 05:09:33 AM 55.7079 -5.0245 91° East 236 272 6,700 -1,143 Descending FlightAware UK
Tue 05:09:57 AM 55.7082 -4.9829 89° East 224 258 6,200 -1,143 Descending FlightAware UK
Tue 05:10:15 AM 55.7086 -4.9511 89° East 230 265 5,900 -833 Descending FlightAware UK
Tue 05:10:33 AM 55.7089 -4.9193 89° East 226 260 5,700 -833 Descending FlightAware UK
Tue 05:10:51 AM 55.7089 -4.8870 90° East 232 267 5,400 -1,000 Descending FlightAware UK
Tue 05:11:21 AM 55.7129 -4.8342 82° East 230 265 4,900 -1,111 Descending FlightAware UK
Tue 05:11:45 AM 55.7167 -4.7918 81° East 228 262 4,400 -1,125 Descending FlightAware UK
Tue 05:12:09 AM 55.7203 -4.7544 80° East 206 237 4,000 -1,000 Descending FlightAware UK
Tue 05:12:27 AM 55.7229 -4.7278 80° East 204 235 3,700 -833 Descending FlightAware UK
Tue 05:12:45 AM 55.7318 -4.7042 56° Northeast 210 242 3,500 -571 Descending FlightAware UK
Tue 05:13:09 AM 55.7447 -4.6722 54° Northeast 214 246 3,300 -571 Descending FlightAware UK
Tue 05:13:27 AM 55.7564 -4.6505 46° Northeast 216 249 3,100 -667 Descending FlightAware UK
Tue 05:13:45 AM 55.7669 -4.6301 48° Northeast 196 226 2,900 -875 Descending FlightAware UK
Tue 05:14:15 AM 55.7823 -4.6005 47° Northeast 1 1 2,400 -875 Descending FlightAware UK
Tue 05:14:33 AM 55.7908 -4.5846 46° Northeast 1 1 2,200 -778 Descending FlightAware UK
Tue 05:15:09 AM 55.8068 -4.5547 46° Northeast 1 1 1,700 -778 Descending FlightAware UK
Tue 05:15:27 AM 55.8152 -4.5388 47° Northeast 1 1 1,500 -833 Descending FlightAware UK
Tue 05:15:45 AM 55.8237 -4.5232 46° Northeast 1 1 1,200 -800 Descending FlightAware UK
Tue 05:16:27 AM 55.8403 -4.4922 46° Northeast 1 1 700 -643 Descending FlightAware UK
Tue 05:17:09 AM 55.8565 -4.4621 46° Northeast 1 1 300 -571 Descending FlightAware UK
Tue 05:19:00 AM 55.8719 -4.4331 47° Northeast  Level Estimated
Tue 05:26:00 AM 55.8719 -4.4331 29° Northeast  Level Estimated
Tue 05:27:00 AM 55.8719 -4.4331 29° Northeast  Level Estimated
Tue 05:28:00 AM 55.8719 -4.4331 29° Northeast  Level Estimated
Tue 05:29:00 AM 55.8719 -4.4331 29° Northeast  Level Estimated
Tue 05:30:00 AM 55.8719 -4.4331 29° Northeast  Level Estimated
Tue 05:31:00 AM 55.8719 -4.4331 29° Northeast  Level Estimated
Tue 05:32:00 AM 55.8719 -4.4331 29° Northeast  Level Estimated
Tue 05:33:00 AM 55.8719 -4.4331 29° Northeast  Level Estimated

Login

Don't have an account? Register now (free) for customized features, flight alerts, and more!